Time;durP1;ratioP1;P1;durP2;ratioP2;P2;SDS_P1;SDS_P2;PMS_P1;PMS_P2;Temp;Humidity;BMP_temperature;BMP_pressure;BME280_temperature;BME280_humidity;BME280_pressure;Samples;Min_cycle;Max_cycle;Signal;HPM_P1;HPM_P2
2022/03/18 00:03:54;;;;;;;54.23;23.83;;;2.20;99.90;;;-0.03;84.59;102010.66;10240303;28;96651;-78
2022/03/18 00:08:57;;;;;;;53.07;22.67;;;2.10;99.90;;;-0.12;84.68;102018.81;10242225;28;97221;-78
2022/03/18 00:14:02;;;;;;;55.53;23.47;;;2.00;99.90;;;-0.21;84.74;102022.63;10262338;28;96562;-78
2022/03/18 00:19:05;;;;;;;46.80;20.67;;;1.90;99.90;;;-0.29;84.93;102025.53;10288252;28;96540;-78
2022/03/18 00:24:08;;;;;;;48.80;21.83;;;1.80;99.90;;;-0.35;85.68;102023.13;10261610;28;96834;-78
2022/03/18 00:29:13;;;;;;;55.40;24.07;;;1.70;99.90;;;-0.38;85.85;102025.81;10254918;28;96584;-78
2022/03/18 00:34:16;;;;;;;54.33;23.90;;;1.70;99.90;;;-0.39;86.43;102024.13;10248492;28;96905;-78
2022/03/18 00:39:19;;;;;;;54.30;24.10;;;1.70;99.90;;;-0.35;86.67;102037.94;10283357;28;96550;-78
2022/03/18 00:44:25;;;;;;;64.40;26.83;;;1.70;99.90;;;-0.34;86.84;102037.88;10282367;28;96578;-78
2022/03/18 00:54:50;;;;;;;79.73;30.37;;;1.60;99.90;;;-0.42;87.00;102039.91;10276274;28;96549;-79
2022/03/18 00:59:53;;;;;;;76.30;30.23;;;1.60;99.90;;;-0.47;86.96;102054.88;10255423;28;96541;-78
2022/03/18 01:04:56;;;;;;;76.90;28.17;;;1.60;99.90;;;-0.53;87.41;102049.88;10281539;28;96615;-78
2022/03/18 01:09:59;;;;;;;66.17;27.40;;;1.50;99.90;;;-0.59;87.26;102050.06;10263472;28;96584;-78
2022/03/18 01:15:02;;;;;;;70.07;29.57;;;1.40;99.90;;;-0.66;87.47;102057.25;10268992;28;97365;-78
2022/03/18 01:20:07;;;;;;;67.17;26.13;;;1.40;99.90;;;-0.71;87.37;102045.25;10286368;28;96581;-79
2022/03/18 01:25:10;;;;;;;54.20;24.50;;;1.40;99.90;;;-0.79;87.71;102042.88;10246710;28;96493;-77
2022/03/18 01:30:16;;;;;;;47.53;22.23;;;1.30;99.90;;;-0.83;88.00;102046.50;10270130;28;96688;-77
2022/03/18 01:35:19;;;;;;;44.27;20.60;;;1.30;99.90;;;-0.88;88.06;102056.25;10253579;28;96574;-77
2022/03/18 01:40:22;;;;;;;51.70;21.07;;;1.20;99.90;;;-0.91;88.29;102079.81;10259013;28;97155;-77
2022/03/18 01:45:25;;;;;;;53.70;21.83;;;1.20;99.90;;;-0.90;88.46;102105.00;10274778;28;96729;-77
2022/03/18 01:50:28;;;;;;;48.03;22.10;;;1.10;99.90;;;-0.91;88.91;102104.16;10241823;28;96676;-77
2022/03/18 01:55:31;;;;;;;49.97;22.00;;;1.10;99.90;;;-0.94;88.67;102098.19;10240791;28;96642;-77
2022/03/18 02:00:34;;;;;;;46.10;23.40;;;1.10;99.90;;;-0.97;89.11;102112.19;10248959;28;96804;-78
2022/03/18 02:05:39;;;;;;;50.20;22.60;;;1.00;99.90;;;-0.91;89.45;102114.59;10239258;28;96780;-77
2022/03/18 02:10:44;;;;;;;48.80;23.70;;;1.10;99.90;;;-0.78;89.46;102127.25;10237970;28;97984;-79
2022/03/18 02:15:47;;;;;;;48.90;23.37;;;1.10;99.90;;;-0.65;89.74;102126.84;10235267;28;96829;-79
2022/03/18 02:20:50;;;;;;;51.63;25.00;;;1.20;99.90;;;-0.50;90.16;102128.09;10257313;28;96555;-79
2022/03/18 02:25:53;;;;;;;54.93;24.60;;;1.30;99.90;;;-0.43;90.07;102123.53;10244437;28;96510;-79
2022/03/18 02:30:56;;;;;;;63.67;27.47;;;1.40;99.90;;;-0.41;89.84;102135.66;10259412;28;96602;-79
2022/03/18 02:35:59;;;;;;;47.87;23.07;;;1.50;99.90;;;-0.41;90.10;102130.44;10271829;28;96649;-79
2022/03/18 02:41:02;;;;;;;70.50;29.87;;;1.50;99.90;;;-0.34;90.42;102136.31;10267157;28;97692;-79
2022/03/18 02:46:05;;;;;;;56.87;25.53;;;1.50;99.90;;;-0.32;90.02;102145.78;10251710;28;96673;-79
2022/03/18 02:51:09;;;;;;;49.10;25.60;;;1.60;99.90;;;-0.31;90.53;102157.94;10275802;28;96949;-79
2022/03/18 02:56:12;;;;;;;57.87;26.27;;;1.60;99.90;;;-0.33;89.71;102164.97;10254059;28;97158;-79
2022/03/18 03:01:15;;;;;;;55.17;25.60;;;1.60;99.90;;;-0.38;89.84;102166.03;10236687;28;96623;-79
2022/03/18 03:11:46;;;;;;;48.53;24.30;;;1.60;99.90;;;-0.39;89.54;102172.16;10240043;28;97845;-77
2022/03/18 03:16:49;;;;;;;47.60;22.27;;;1.60;99.90;;;-0.37;88.76;102173.81;10277893;28;96542;-77
2022/03/18 03:21:53;;;;;;;42.70;20.83;;;1.60;99.90;;;-0.41;88.78;102182.66;10275724;28;96559;-78
2022/03/18 03:26:56;;;;;;;42.27;19.67;;;1.50;99.90;;;-0.47;88.51;102195.06;10275926;28;96584;-77
2022/03/18 03:31:59;;;;;;;39.20;19.63;;;1.50;99.90;;;-0.52;88.23;102200.44;10275339;28;96946;-77
2022/03/18 03:37:03;;;;;;;35.77;18.57;;;1.50;99.90;;;-0.57;87.79;102197.09;10276106;28;98018;-78
2022/03/18 03:42:06;;;;;;;36.67;16.93;;;1.40;99.90;;;-0.61;87.61;102211.16;10285623;28;96572;-78
2022/03/18 03:47:09;;;;;;;39.00;18.10;;;1.40;99.90;;;-0.66;87.54;102208.69;10298872;28;96990;-79
2022/03/18 03:52:12;;;;;;;34.73;18.00;;;1.40;99.90;;;-0.66;87.07;102223.47;10292301;28;96585;-79
2022/03/18 03:57:15;;;;;;;33.77;17.57;;;1.30;99.90;;;-0.68;86.69;102230.53;10293028;28;96877;-78
2022/03/18 04:02:20;;;;;;;31.33;15.07;;;1.30;99.90;;;-0.71;86.14;102228.03;10274708;28;96516;-78
2022/03/18 04:07:25;;;;;;;32.90;15.27;;;1.30;99.90;;;-0.74;85.97;102236.78;10292143;28;96581;-78
2022/03/18 04:12:29;;;;;;;30.90;15.77;;;1.30;99.90;;;-0.78;86.15;102239.53;10275262;28;96433;-78
2022/03/18 04:17:43;;;;;;;34.70;16.17;;;1.20;99.90;;;-0.82;85.65;102241.38;10304499;28;97923;-78
2022/03/18 04:22:46;;;;;;;32.53;14.70;;;1.20;99.90;;;-0.86;85.81;102248.44;10308763;28;96560;-77
2022/03/18 04:27:49;;;;;;;36.70;16.37;;;1.20;99.90;;;-0.92;85.43;102253.84;10293635;28;96630;-77
2022/03/18 04:32:52;;;;;;;36.83;15.90;;;1.10;99.90;;;-0.95;85.27;102248.72;10291076;28;97489;-79
2022/03/18 04:37:55;;;;;;;29.40;13.40;;;1.10;99.90;;;-0.94;85.04;102260.00;10324423;28;96610;-79
2022/03/18 04:42:58;;;;;;;27.30;11.80;;;1.10;99.90;;;-0.93;84.76;102261.72;10309115;28;96672;-79
2022/03/18 04:48:01;;;;;;;29.17;11.80;;;1.10;99.90;;;-0.92;84.38;102269.50;10298091;28;96936;-79
2022/03/18 04:53:04;;;;;;;32.13;15.40;;;1.10;99.90;;;-0.86;83.66;102284.13;10290507;28;96577;-78
2022/03/18 04:58:07;;;;;;;43.87;19.67;;;1.10;99.90;;;-0.81;82.30;102293.53;10325380;28;96529;-78
2022/03/18 05:03:10;;;;;;;29.63;16.00;;;1.20;99.90;;;-0.76;81.65;102305.63;10302344;28;97986;-79
2022/03/18 05:08:13;;;;;;;31.97;15.53;;;1.20;99.90;;;-0.73;80.97;102308.13;10315265;28;96604;-79
2022/03/18 05:13:16;;;;;;;31.53;15.60;;;1.30;99.90;;;-0.71;80.85;102315.03;10302666;28;96381;-80
2022/03/18 05:18:19;;;;;;;28.03;13.43;;;1.30;99.90;;;-0.70;80.32;102315.88;10237558;28;96490;-79
2022/03/18 05:23:23;;;;;;;74.13;26.00;;;1.30;99.90;;;-0.66;80.19;102325.31;10242878;28;96605;-79
2022/03/18 05:28:26;;;;;;;59.00;20.43;;;1.30;99.90;;;-0.62;80.01;102321.72;10242589;28;96765;-80
2022/03/18 05:33:29;;;;;;;35.63;14.73;;;1.40;99.90;;;-0.57;79.52;102327.69;10267762;28;96540;-79
2022/03/18 05:38:32;;;;;;;25.87;11.77;;;1.40;99.90;;;-0.49;79.46;102335.28;10238918;28;96597;-80
2022/03/18 05:43:36;;;;;;;25.23;11.57;;;1.40;99.90;;;-0.41;79.04;102338.53;10240152;28;96576;-80
2022/03/18 05:48:39;;;;;;;92.93;40.27;;;1.50;99.90;;;-0.27;78.77;102346.81;10275342;28;97009;-80
2022/03/18 05:53:43;;;;;;;28.80;14.70;;;1.60;99.90;;;-0.12;78.14;102345.47;10264583;28;97104;-78
2022/03/18 05:58:46;;;;;;;25.13;12.57;;;1.70;99.90;;;0.07;76.87;102361.47;10262302;28;96466;-78
2022/03/18 06:03:50;;;;;;;23.57;13.23;;;1.90;99.90;;;0.25;75.95;102367.00;10232101;28;96609;-79
2022/03/18 06:14:15;;;;;;;43.70;20.20;;;2.20;99.90;;;0.69;74.36;102377.75;10239355;28;97409;-79
2022/03/18 06:19:20;;;;;;;38.17;16.43;;;2.40;99.90;;;0.88;73.64;102382.38;10237803;28;96630;-79
2022/03/18 06:24:24;;;;;;;35.93;16.50;;;2.60;99.90;;;1.03;72.61;102377.47;10243523;28;96545;-79
2022/03/18 06:29:28;;;;;;;28.60;13.77;;;2.80;99.90;;;1.20;72.44;102389.09;10226863;28;97674;-79
2022/03/18 06:34:31;;;;;;;30.67;14.97;;;2.90;99.90;;;1.36;71.66;102395.50;10277420;28;96519;-79
2022/03/18 06:39:35;;;;;;;29.80;14.60;;;3.10;99.90;;;1.52;70.40;102401.06;10244303;28;96517;-79
2022/03/18 06:44:37;;;;;;;32.00;16.97;;;3.20;99.90;;;1.67;69.88;102397.84;10235191;28;97306;-79
2022/03/18 06:49:40;;;;;;;24.57;13.30;;;3.30;99.90;;;1.82;69.42;102407.78;10245623;28;96439;-79
2022/03/18 06:54:49;;;;;;;29.70;15.00;;;3.50;99.90;;;2.03;68.97;102415.72;10254994;28;96522;-79
2022/03/18 06:59:51;;;;;;;40.83;17.40;;;3.60;99.90;;;2.24;67.50;102412.28;10276706;28;96862;-79
2022/03/18 07:04:55;;;;;;;32.50;16.23;;;3.80;99.50;;;2.46;67.33;102417.56;10295244;28;96464;-79
2022/03/18 07:09:57;;;;;;;23.80;12.97;;;4.00;99.90;;;2.68;65.40;102417.50;10267504;28;96682;-79
2022/03/18 07:15:00;;;;;;;24.60;12.83;;;4.30;99.60;;;2.89;63.03;102416.63;10276621;28;96626;-79
2022/03/18 07:20:04;;;;;;;23.70;11.77;;;4.50;97.20;;;3.12;61.29;102422.66;10247661;28;96775;-79
2022/03/18 07:25:09;;;;;;;25.07;10.90;;;4.60;95.90;;;3.27;56.97;102427.28;10252893;28;96476;-78
2022/03/18 07:30:13;;;;;;;25.20;11.07;;;4.80;92.30;;;3.41;55.87;102431.94;10250766;28;97117;-79
2022/03/18 07:35:16;;;;;;;20.83;9.33;;;5.00;87.40;;;3.60;54.13;102443.38;10257925;28;96408;-78
2022/03/18 07:40:20;;;;;;;18.33;9.07;;;5.10;89.40;;;3.75;52.90;102447.91;10247757;28;98483;-78
2022/03/18 07:45:29;;;;;;;14.53;6.70;;;5.30;79.90;;;3.94;51.69;102439.19;10221235;28;96585;-78
2022/03/18 07:50:34;;;;;;;14.53;7.20;;;5.50;77.70;;;4.16;51.17;102454.84;10237449;28;96994;-78
2022/03/18 07:55:38;;;;;;;13.23;7.03;;;5.70;78.70;;;4.38;50.08;102458.19;10270081;28;97708;-79
2022/03/18 08:00:43;;;;;;;13.73;6.63;;;5.90;76.10;;;4.57;48.75;102456.38;10254102;28;96895;-78
2022/03/18 08:05:46;;;;;;;11.17;6.20;;;6.10;73.60;;;4.81;48.35;102454.31;10234710;28;96495;-79
2022/03/18 08:10:52;;;;;;;17.13;8.30;;;6.30;72.00;;;5.00;46.72;102464.78;10234534;28;96505;-79
2022/03/18 08:15:56;;;;;;;17.67;8.27;;;6.50;73.00;;;5.36;47.28;102459.44;10238194;28;96768;-78
2022/03/18 08:20:59;;;;;;;14.33;7.70;;;6.80;69.50;;;5.74;47.01;102467.13;10234576;28;96515;-79
2022/03/18 08:26:02;;;;;;;13.73;7.13;;;7.10;70.40;;;6.03;46.45;102478.81;10255048;28;96531;-79
2022/03/18 08:31:05;;;;;;;17.87;8.27;;;7.30;67.90;;;6.31;44.70;102478.16;10236896;28;96526;-79
2022/03/18 08:36:08;;;;;;;13.93;6.77;;;7.60;67.50;;;6.56;43.58;102482.06;10273625;28;96539;-79
2022/03/18 08:41:12;;;;;;;16.63;7.47;;;7.90;64.70;;;6.65;42.75;102482.38;10265476;28;96505;-78
2022/03/18 08:46:15;;;;;;;13.53;7.97;;;8.00;61.80;;;6.75;42.24;102482.72;10297222;28;96462;-79
2022/03/18 08:51:18;;;;;;;13.00;7.40;;;8.20;59.70;;;6.83;40.77;102490.22;10271883;28;96863;-80
2022/03/18 08:56:20;;;;;;;13.80;7.07;;;8.30;57.20;;;6.79;40.88;102496.63;10239703;28;96568;-80
2022/03/18 09:01:25;;;;;;;10.30;5.97;;;8.30;58.10;;;6.77;40.70;102495.84;10240394;28;96588;-80
2022/03/18 09:06:28;;;;;;;16.97;7.40;;;8.30;58.50;;;6.65;40.40;102492.94;10258036;28;96467;-81
2022/03/18 09:11:31;;;;;;;13.63;7.37;;;8.20;57.40;;;6.67;39.58;102495.53;10236824;28;96422;-81
2022/03/18 09:16:36;;;;;;;16.17;7.20;;;8.30;55.50;;;6.53;39.33;102500.72;10256763;28;96612;-80
2022/03/18 09:21:39;;;;;;;15.70;6.87;;;8.20;56.10;;;6.49;39.22;102507.97;10250749;28;96378;-81
2022/03/18 09:26:43;;;;;;;13.20;7.27;;;8.10;54.00;;;6.58;39.89;102504.81;10243530;28;96498;-80
2022/03/18 09:31:46;;;;;;;11.90;6.33;;;8.10;55.40;;;6.65;39.57;102495.59;10238722;28;96911;-81
2022/03/18 09:36:49;;;;;;;16.07;7.43;;;8.20;53.90;;;6.69;39.15;102501.56;10241648;28;96822;-80
2022/03/18 09:41:53;;;;;;;11.63;6.73;;;8.20;54.40;;;6.82;39.23;102509.66;10271855;28;97459;-80
2022/03/18 09:46:56;;;;;;;10.17;6.37;;;8.30;55.80;;;7.01;39.21;102514.75;10278018;28;96861;-80
2022/03/18 09:52:00;;;;;;;12.60;7.13;;;8.40;54.50;;;6.98;38.83;102515.78;10268034;28;96354;-81
2022/03/18 09:57:04;;;;;;;15.27;7.40;;;8.40;54.10;;;7.11;39.24;102502.69;10246958;28;96554;-80
2022/03/18 10:02:28;;;;;;;15.17;6.90;;;8.50;53.80;;;7.30;38.57;102510.41;10226397;28;96930;-81
2022/03/18 10:07:32;;;;;;;12.73;7.00;;;8.70;54.00;;;7.41;38.25;102514.13;10268608;28;96443;-80
2022/03/18 10:12:38;;;;;;;23.47;12.83;;;8.80;53.30;;;7.41;38.15;102511.47;10221673;28;96461;-80
2022/03/18 10:17:48;;;;;;;14.70;7.57;;;8.90;54.10;;;7.70;38.47;102508.88;10276014;28;96636;-80
2022/03/18 10:23:18;;;;;;;10.80;6.87;;;9.10;53.30;;;7.90;38.21;102511.16;10294489;28;96542;-80
2022/03/18 10:28:36;;;;;;;13.20;7.17;;;9.20;52.90;;;7.96;37.53;102518.72;10294984;28;96558;-80
2022/03/18 10:39:35;;;;;;;16.43;8.40;;;9.50;51.50;;;8.33;37.78;102514.63;10320200;28;96531;-80
2022/03/18 10:44:51;;;;;;;;;;;9.70;53.20;;;8.72;37.46;102515.72;10293352;28;97535;-80
2022/03/18 10:50:19;;;;;;;20.17;10.27;;;9.90;49.90;;;8.88;38.60;102518.25;10292872;28;96592;-80
2022/03/18 10:55:26;;;;;;;18.40;11.20;;;10.10;52.40;;;9.20;38.63;102516.09;10316765;28;96582;-80
2022/03/18 11:00:39;;;;;;;17.83;11.27;;;10.40;53.30;;;9.54;38.52;102505.88;10327193;28;96427;-80
2022/03/18 11:05:50;;;;;;;20.67;10.97;;;10.70;53.30;;;9.85;38.49;102502.78;10334022;28;96446;-79
2022/03/18 11:11:10;;;;;;;20.10;11.03;;;11.00;53.20;;;10.14;38.89;102499.91;10318257;28;96815;-80
2022/03/18 11:16:17;;;;;;;18.07;10.57;;;11.40;54.50;;;10.55;38.32;102496.94;10282449;28;96776;-81
2022/03/18 11:21:21;;;;;;;22.13;12.50;;;11.70;53.70;;;10.78;38.80;102489.09;10225552;28;96990;-80
2022/03/18 11:26:24;;;;;;;21.50;13.30;;;12.00;53.70;;;10.86;39.29;102484.91;10221281;28;96999;-81
2022/03/18 11:31:28;;;;;;;23.17;14.60;;;12.20;53.50;;;10.79;39.53;102480.13;10236053;28;96556;-80
2022/03/18 11:36:31;;;;;;;22.27;12.57;;;12.30;54.10;;;10.94;39.79;102474.53;10235415;28;96599;-80
2022/03/18 11:41:46;;;;;;;19.90;11.65;;;12.30;54.10;;;11.48;38.92;102468.63;10242769;28;98891;-81
2022/03/18 11:46:52;;;;;;;23.40;14.10;;;12.70;54.70;;;11.99;37.26;102460.22;10236301;28;96634;-80
2022/03/18 11:52:00;;;;;;;27.10;13.18;;;13.10;53.60;;;12.34;37.76;102459.22;10235809;28;96591;-80
2022/03/18 11:57:05;;;;;;;24.95;14.85;;;13.50;53.00;;;12.71;36.96;102451.69;10253334;28;97222;-80
2022/03/18 12:02:12;;;;;;;25.23;14.35;;;13.90;52.20;;;12.70;36.12;102457.16;10245796;28;98640;-80
2022/03/18 12:07:30;;;;;;;34.08;21.13;;;14.10;51.10;;;12.58;35.93;102445.69;10252749;28;96620;-81
2022/03/18 12:12:41;;;;;;;31.00;17.77;;;14.00;50.30;;;12.89;36.08;102435.13;10274049;28;96568;-81
2022/03/18 12:17:56;;;;;;;25.20;15.38;;;14.20;50.80;;;12.92;35.67;102419.72;10281178;28;96792;-80
2022/03/18 12:23:08;;;;;;;22.00;13.48;;;14.30;49.50;;;13.06;35.78;102415.88;10259822;28;96576;-79
2022/03/18 12:28:11;;;;;;;44.92;25.35;;;14.40;50.00;;;13.26;34.22;102404.41;10233989;28;96619;-80
2022/03/18 12:33:13;;;;;;;104.90;55.15;;;14.60;49.00;;;13.09;33.99;102413.81;10236908;28;96551;-79
2022/03/18 12:38:18;;;;;;;27.45;16.75;;;14.80;48.70;;;13.04;34.53;102405.34;10271087;28;96543;-79
2022/03/18 12:43:21;;;;;;;20.10;12.07;;;14.70;48.30;;;13.41;34.71;102407.56;10261532;28;96677;-81
2022/03/18 12:48:24;;;;;;;21.13;14.02;;;14.90;48.90;;;14.06;33.79;102392.91;10267922;28;96511;-81
2022/03/18 12:53:33;;;;;;;18.75;12.23;;;15.50;48.30;;;14.57;33.37;102389.19;10260653;28;98525;-81
2022/03/18 12:58:39;;;;;;;23.02;13.95;;;16.00;47.60;;;14.46;32.21;102378.63;10268433;28;96743;-81
2022/03/18 13:04:02;;;;;;;22.55;13.63;;;16.10;46.50;;;14.11;33.10;102379.13;10241441;28;97432;-80
2022/03/18 13:09:13;;;;;;;20.33;13.02;;;15.90;46.30;;;14.13;33.01;102369.13;10280824;28;96669;-80
2022/03/18 13:14:34;;;;;;;19.40;12.50;;;15.90;46.20;;;14.23;33.04;102361.97;10252403;28;97648;-80
2022/03/18 13:19:43;;;;;;;19.97;12.70;;;16.10;45.70;;;14.55;33.06;102345.69;10295500;28;98171;-80
2022/03/18 13:24:50;;;;;;;22.90;12.88;;;16.30;46.60;;;14.52;32.48;102343.31;10295099;28;98179;-80
2022/03/18 13:35:20;;;;;;;21.90;14.57;;;16.20;44.90;;;14.32;32.60;102341.56;10337931;28;96770;-80
2022/03/18 13:40:23;;;;;;;20.33;13.63;;;16.10;45.40;;;14.31;33.17;102334.53;10327066;28;96780;-81
2022/03/18 13:45:28;;;;;;;20.60;13.98;;;16.20;45.60;;;14.53;32.57;102334.28;10312164;28;96520;-81
2022/03/18 13:50:46;;;;;;;28.25;16.88;;;16.40;45.20;;;14.26;31.57;102331.44;10329097;28;96623;-79
2022/03/18 13:55:51;;;;;;;26.80;15.35;;;16.30;44.40;;;13.82;31.78;102325.59;10291359;28;96668;-80
2022/03/18 14:01:07;;;;;;;22.30;13.90;;;16.00;44.00;;;13.74;32.30;102328.97;10301932;28;98172;-79
2022/03/18 14:06:12;;;;;;;19.15;12.73;;;15.80;44.50;;;13.74;33.61;102331.66;10326595;28;96626;-80
2022/03/18 14:17:16;;;;;;;22.75;13.88;;;15.80;44.50;;;13.92;32.87;102321.13;10280325;28;96863;-80
2022/03/18 14:22:35;;;;;;;23.27;14.88;;;15.90;44.50;;;13.96;32.85;102316.34;10270109;28;97132;-79
2022/03/18 14:27:40;;;;;;;23.42;13.43;;;16.00;44.50;;;14.07;32.52;102314.38;10257490;28;96602;-80
2022/03/18 14:32:46;;;;;;;22.95;14.18;;;16.10;44.50;;;14.17;31.97;102319.75;10264255;28;96583;-80
2022/03/18 14:37:50;;;;;;;23.30;13.75;;;16.30;44.10;;;13.97;32.35;102318.03;10268219;28;96996;-80
2022/03/18 14:42:53;;;;;;;24.65;14.07;;;16.00;43.80;;;13.51;32.58;102312.31;10279869;28;97018;-80
2022/03/18 14:47:57;;;;;;;22.05;14.32;;;15.60;44.10;;;13.47;33.54;102310.03;10258774;28;96528;-80
2022/03/18 14:53:01;;;;;;;21.00;13.25;;;15.50;44.70;;;13.48;33.35;102311.72;10256157;28;98438;-81
2022/03/18 14:58:05;;;;;;;24.27;13.77;;;15.40;44.70;;;13.21;33.67;102313.19;10247183;28;96496;-81
2022/03/18 15:03:08;;;;;;;19.70;13.48;;;15.20;44.70;;;13.17;33.79;102310.88;10236753;28;96580;-80
2022/03/18 15:08:12;;;;;;;23.07;14.53;;;15.20;44.90;;;13.07;33.89;102318.81;10250554;28;96703;-80
2022/03/18 15:13:14;;;;;;;21.52;13.52;;;15.10;44.80;;;13.17;34.56;102319.72;10258927;28;96707;-80
2022/03/18 15:18:18;;;;;;;18.90;12.65;;;15.10;45.10;;;13.33;34.49;102313.94;10270072;28;98070;-80
2022/03/18 15:23:22;;;;;;;23.23;13.43;;;15.30;45.00;;;13.35;33.16;102310.13;10309470;28;96542;-80
2022/03/18 15:28:25;;;;;;;19.15;12.75;;;15.30;44.70;;;13.27;33.63;102311.78;10331558;28;96534;-80
2022/03/18 15:33:28;;;;;;;26.08;13.40;;;15.20;44.60;;;13.13;33.51;102313.81;10303290;28;96713;-80
2022/03/18 15:38:32;;;;;;;22.03;13.63;;;15.10;44.80;;;13.04;33.70;102313.75;10309584;28;96968;-80
2022/03/18 15:43:35;;;;;;;20.17;13.47;;;15.00;44.90;;;12.87;34.01;102317.88;10282872;28;98523;-80
2022/03/18 15:48:39;;;;;;;21.30;12.83;;;14.90;44.90;;;12.42;34.59;102319.94;10304617;28;96619;-80
2022/03/18 15:53:46;;;;;;;23.40;15.53;;;14.50;45.20;;;11.84;34.99;102322.91;10310612;28;96628;-80
2022/03/18 15:58:49;;;;;;;20.13;12.83;;;13.90;45.50;;;11.23;36.12;102322.47;10318724;28;96913;-80
2022/03/18 16:03:52;;;;;;;26.17;15.23;;;13.40;46.20;;;10.61;37.11;102331.63;10308283;28;96434;-80
2022/03/18 16:08:59;;;;;;;28.83;17.07;;;12.70;47.00;;;10.09;38.39;102324.88;10310014;28;96604;-80
2022/03/18 16:14:03;;;;;;;29.33;15.80;;;12.20;47.80;;;9.64;39.38;102329.91;10291155;28;97001;-80
2022/03/18 16:19:06;;;;;;;29.13;18.87;;;11.70;48.60;;;9.23;40.78;102332.81;10284037;28;98451;-81
2022/03/18 16:24:09;;;;;;;37.53;20.80;;;11.20;49.70;;;8.84;41.73;102333.78;10290694;28;96608;-80
2022/03/18 16:29:12;;;;;;;68.60;35.07;;;10.80;50.50;;;8.47;42.51;102336.28;10289984;28;97709;-81
2022/03/18 16:34:16;;;;;;;44.37;23.90;;;10.50;51.00;;;8.05;43.67;102346.06;10316475;28;96868;-79
2022/03/18 16:39:19;;;;;;;38.77;20.93;;;10.10;51.10;;;7.66;44.64;102344.13;10299832;28;96466;-80
2022/03/18 16:44:22;;;;;;;33.17;18.10;;;9.70;51.60;;;7.31;45.37;102345.47;10289993;28;96556;-79
2022/03/18 16:49:25;;;;;;;85.93;39.70;;;9.30;52.50;;;6.93;46.43;102341.59;10306312;28;96733;-79
2022/03/18 16:54:28;;;;;;;66.30;30.40;;;9.00;52.70;;;6.63;47.73;102353.97;10291576;28;97570;-79
2022/03/18 16:59:31;;;;;;;62.43;29.53;;;8.70;53.30;;;6.39;48.34;102353.59;10304030;28;97001;-80
2022/03/18 17:04:37;;;;;;;84.40;41.33;;;8.40;54.00;;;6.15;49.01;102358.50;10313659;28;96727;-80
2022/03/18 17:09:40;;;;;;;119.37;57.90;;;8.10;54.50;;;5.94;49.33;102368.47;10295483;28;96959;-79
2022/03/18 17:14:43;;;;;;;206.37;89.60;;;7.90;55.00;;;5.76;50.43;102374.72;10320764;28;97403;-79
2022/03/18 17:19:46;;;;;;;87.27;41.97;;;7.70;55.60;;;5.58;50.36;102372.16;10343413;28;96649;-80
2022/03/18 17:24:50;;;;;;;72.57;34.43;;;7.50;56.60;;;5.38;50.39;102382.88;10296462;28;96587;-79
2022/03/18 17:29:54;;;;;;;55.00;25.53;;;7.30;57.10;;;5.18;51.17;102391.00;10311867;28;96488;-80
2022/03/18 17:34:57;;;;;;;46.87;24.27;;;7.10;57.20;;;4.99;52.20;102399.84;10285056;28;96561;-80
2022/03/18 17:40:01;;;;;;;93.33;43.27;;;7.00;58.70;;;4.80;52.35;102404.34;10296118;28;96415;-80
2022/03/18 17:45:05;;;;;;;63.27;30.63;;;6.80;58.70;;;4.58;53.16;102404.56;10316421;28;96737;-80
2022/03/18 17:50:09;;;;;;;57.50;28.43;;;6.60;60.50;;;4.34;53.75;102406.59;10283657;28;96534;-78
2022/03/18 17:55:12;;;;;;;57.20;25.73;;;6.40;59.90;;;4.08;54.60;102423.63;10325202;28;98323;-79
2022/03/18 18:00:15;;;;;;;43.30;21.87;;;6.10;60.60;;;3.86;55.32;102418.50;10304495;28;96872;-79
2022/03/18 18:05:18;;;;;;;42.90;20.20;;;5.90;60.90;;;3.65;55.83;102428.22;10311082;28;97562;-80
2022/03/18 18:10:25;;;;;;;41.40;21.13;;;5.70;62.70;;;3.46;56.89;102429.94;10315198;28;96769;-79
2022/03/18 18:15:28;;;;;;;47.73;25.53;;;5.60;62.80;;;3.26;57.70;102430.84;10282040;28;97308;-79
2022/03/18 18:25:53;;;;;;;;;;;5.20;63.80;;;2.92;57.89;102437.50;10279872;28;96539;-78
2022/03/18 18:30:56;;;;;;;44.30;23.40;;;5.00;66.50;;;2.75;58.96;102445.22;10283367;28;96667;-80
2022/03/18 18:35:59;;;;;;;38.70;20.20;;;4.90;65.70;;;2.61;60.19;102451.03;10245460;28;98467;-79
2022/03/18 18:41:04;;;;;;;38.13;18.40;;;4.70;66.90;;;2.54;60.50;102446.97;10237297;28;96501;-78
2022/03/18 18:46:10;;;;;;;41.57;18.43;;;4.60;67.40;;;2.52;60.47;102450.53;10284740;28;96531;-78
2022/03/18 18:51:13;;;;;;;46.37;22.57;;;4.60;67.40;;;2.46;61.35;102442.91;10269260;28;96538;-78
2022/03/18 18:56:16;;;;;;;48.83;21.67;;;4.50;69.90;;;2.39;61.27;102445.78;10235004;28;96605;-80
2022/03/18 19:01:19;;;;;;;42.97;20.93;;;4.40;69.40;;;2.31;61.19;102441.75;10272443;28;96576;-78
2022/03/18 19:06:23;;;;;;;49.03;21.50;;;4.40;68.80;;;2.19;61.05;102448.34;10251272;28;97211;-79
2022/03/18 19:11:26;;;;;;;44.93;21.70;;;4.30;69.00;;;2.07;61.25;102449.66;10260794;28;96557;-79
2022/03/18 19:16:29;;;;;;;45.17;21.27;;;4.10;69.50;;;1.92;61.81;102452.88;10258931;28;96704;-79
2022/03/18 19:21:34;;;;;;;48.47;22.03;;;4.00;69.90;;;1.78;62.23;102461.22;10283382;28;97545;-80
2022/03/18 19:26:37;;;;;;;57.27;24.70;;;3.90;69.90;;;1.63;62.58;102466.19;10236545;28;96520;-79
2022/03/18 19:37:02;;;;;;;;;;;3.60;73.00;;;1.40;64.11;102475.72;10238207;28;96481;-78
2022/03/18 19:42:06;;;;;;;53.67;23.70;;;3.50;79.60;;;1.24;64.36;102479.75;10239023;28;96930;-78
2022/03/18 19:47:08;;;;;;;48.90;22.80;;;3.40;75.70;;;1.11;65.05;102479.31;10273266;28;96498;-78
2022/03/18 19:52:16;;;;;;;51.73;24.73;;;3.20;77.50;;;1.02;65.44;102474.38;10274805;28;96480;-78
2022/03/18 20:02:41;;;;;;;39.75;19.27;;;3.00;76.60;;;0.85;66.57;102481.94;10278391;28;96431;-79
2022/03/18 20:07:44;;;;;;;36.73;18.57;;;3.00;81.80;;;0.77;67.06;102479.56;10261582;28;96381;-80
2022/03/18 20:12:47;;;;;;;41.03;20.07;;;2.90;78.30;;;0.75;67.50;102481.38;10234092;28;96589;-80
2022/03/18 20:17:50;;;;;;;48.00;21.43;;;2.80;82.00;;;0.74;67.81;102472.66;10234007;28;96603;-79
2022/03/18 20:22:53;;;;;;;53.07;23.63;;;2.80;84.60;;;0.74;68.44;102477.06;10244421;28;98844;-79
2022/03/18 20:27:57;;;;;;;59.77;24.33;;;2.70;87.30;;;0.69;68.90;102476.34;10246300;28;97517;-79
2022/03/18 20:33:00;;;;;;;52.53;23.57;;;2.70;89.90;;;0.65;69.07;102475.56;10263139;28;97391;-79
2022/03/18 20:38:04;;;;;;;58.53;25.00;;;2.60;87.30;;;0.58;69.31;102481.91;10254558;28;97450;-79
2022/03/18 20:43:07;;;;;;;66.77;26.30;;;2.60;86.50;;;0.51;69.20;102473.41;10244803;28;97484;-80
2022/03/18 20:48:10;;;;;;;54.03;24.10;;;2.50;90.30;;;0.41;69.45;102479.81;10263454;28;97204;-80
2022/03/18 20:53:13;;;;;;;48.57;20.30;;;2.50;91.60;;;0.32;69.84;102481.88;10260833;28;96624;-80
2022/03/18 20:58:16;;;;;;;40.67;18.70;;;2.40;93.10;;;0.22;70.38;102482.13;10237750;28;96793;-79
2022/03/18 21:03:20;;;;;;;47.67;20.93;;;2.30;93.00;;;0.17;70.77;102473.56;10258445;28;96562;-79
2022/03/18 21:08:24;;;;;;;44.27;20.30;;;2.30;94.60;;;0.14;71.19;102470.19;10238277;28;97576;-79
2022/03/18 21:13:27;;;;;;;41.17;19.43;;;2.20;95.10;;;0.14;71.30;102470.19;10258925;28;96554;-79
2022/03/18 21:18:30;;;;;;;38.23;17.40;;;2.20;94.80;;;0.11;71.67;102471.13;10250751;28;96574;-79
2022/03/18 21:23:33;;;;;;;32.47;15.63;;;2.20;95.40;;;0.08;71.70;102473.00;10258460;28;97013;-80
2022/03/18 21:33:58;;;;;;;37.13;16.13;;;2.10;96.40;;;0.01;72.81;102472.31;10271083;28;97721;-79
2022/03/18 21:39:01;;;;;;;37.27;16.63;;;2.00;97.80;;;0.08;73.10;102475.59;10268481;28;96563;-80
2022/03/18 21:44:05;;;;;;;26.67;13.73;;;2.10;96.90;;;0.08;72.37;102475.59;10259538;28;97424;-80